CSN6904 ZGHA-ZSPD
Flight info
| Callsign | CSN6904 |
|---|---|
| Flight time | N/A |
| Altitude | 37100 |
| Route | ZGHA/36L PATVO W227 OMKOB DCT ELNEX G204 SHZ W58 XSY DCT ZSPD/35R |
| Aircraft | A320/M-SDE3FGHIRWY/LB1 |
Departure
| Time | 2026-05-07 16:20 |
|---|---|
| Airport | Changsha Huanghua International Airport (ZGHA) |
Arrival
| Time | N/A |
|---|---|
| Airport | Shanghai Pudong International Airport (ZSPD) |
| Time | Latitude | Longitude | Altitude | Speed | Heading |
|---|---|---|---|---|---|
| 2026-05-07 15:17 | 28.18949 | 113.21585 | 214 ft | 0 kts | 321° |
| 2026-05-07 16:00 | 28.18947 | 113.21587 | 217 ft | 3 kts | 321° |
| 2026-05-07 16:00 | 28.18927 | 113.21606 | 219 ft | 4 kts | 314° |
| 2026-05-07 16:00 | 28.18909 | 113.21629 | 219 ft | 4 kts | 302° |
| 2026-05-07 16:00 | 28.18901 | 113.21645 | 220 ft | 1 kts | 300° |
| 2026-05-07 16:01 | 28.18899 | 113.21648 | 219 ft | 0 kts | 300° |
| 2026-05-07 16:03 | 28.18899 | 113.21646 | 219 ft | 0 kts | 284° |
| 2026-05-07 16:04 | 28.18897 | 113.21643 | 219 ft | 0 kts | 255° |
| 2026-05-07 16:04 | 28.18894 | 113.21641 | 218 ft | 1 kts | 228° |
| 2026-05-07 16:04 | 28.18890 | 113.21643 | 216 ft | 1 kts | 186° |
| 2026-05-07 16:04 | 28.18884 | 113.21650 | 215 ft | 2 kts | 133° |
| 2026-05-07 16:05 | 28.18881 | 113.21670 | 214 ft | 4 kts | 96° |
| 2026-05-07 16:05 | 28.18878 | 113.21673 | 214 ft | 1 kts | 126° |
| 2026-05-07 16:05 | 28.18867 | 113.21678 | 217 ft | 3 kts | 159° |
| 2026-05-07 16:05 | 28.18851 | 113.21680 | 214 ft | 0 kts | 173° |
| 2026-05-07 16:06 | 28.18848 | 113.21680 | 214 ft | 0 kts | 178° |
| 2026-05-07 16:12 | 28.18840 | 113.21680 | 217 ft | 3 kts | 177° |
| 2026-05-07 16:12 | 28.18809 | 113.21683 | 214 ft | 6 kts | 175° |
| 2026-05-07 16:13 | 28.18759 | 113.21687 | 214 ft | 8 kts | 175° |
| 2026-05-07 16:13 | 28.18692 | 113.21697 | 215 ft | 11 kts | 161° |
| 2026-05-07 16:13 | 28.18672 | 113.21712 | 214 ft | 0 kts | 140° |
| 2026-05-07 16:13 | 28.18665 | 113.21720 | 214 ft | 3 kts | 130° |
| 2026-05-07 16:14 | 28.18659 | 113.21742 | 222 ft | 4 kts | 101° |
| 2026-05-07 16:14 | 28.18655 | 113.21765 | 217 ft | 0 kts | 101° |
| 2026-05-07 16:14 | 28.18655 | 113.21766 | 217 ft | 0 kts | 101° |
| 2026-05-07 16:14 | 28.18655 | 113.21767 | 216 ft | 1 kts | 101° |
| 2026-05-07 16:15 | 28.18650 | 113.21781 | 215 ft | 4 kts | 112° |
| 2026-05-07 16:15 | 28.18621 | 113.21807 | 221 ft | 8 kts | 160° |
| 2026-05-07 16:15 | 28.18554 | 113.21811 | 218 ft | 12 kts | 178° |
| 2026-05-07 16:15 | 28.18457 | 113.21815 | 213 ft | 16 kts | 178° |
| 2026-05-07 16:16 | 28.18333 | 113.21819 | 216 ft | 19 kts | 176° |
| 2026-05-07 16:16 | 28.18187 | 113.21831 | 214 ft | 23 kts | 174° |
| 2026-05-07 16:16 | 28.18018 | 113.21844 | 214 ft | 26 kts | 178° |
| 2026-05-07 16:16 | 28.17832 | 113.21852 | 217 ft | 22 kts | 177° |
| 2026-05-07 16:17 | 28.17748 | 113.21911 | 220 ft | 9 kts | 109° |
| 2026-05-07 16:17 | 28.17745 | 113.21944 | 215 ft | 0 kts | 88° |
| 2026-05-07 16:18 | 28.17752 | 113.21991 | 216 ft | 14 kts | 76° |
| 2026-05-07 16:18 | 28.17796 | 113.22041 | 215 ft | 1 kts | 12° |
| 2026-05-07 16:18 | 28.17822 | 113.22041 | 219 ft | 4 kts | 354° |
| 2026-05-07 16:18 | 28.17852 | 113.22040 | 220 ft | 6 kts | 358° |
| 2026-05-07 16:19 | 28.17853 | 113.22040 | 219 ft | 0 kts | 358° |
| 2026-05-07 16:19 | 28.18060 | 113.22025 | 221 ft | 67 kts | 356° |
| 2026-05-07 16:20 | 28.18743 | 113.21975 | 220 ft | 126 kts | 356° |
| 2026-05-07 16:20 | 28.19760 | 113.21923 | 285 ft | 160 kts | 357° |
| 2026-05-07 16:20 | 28.20856 | 113.21845 | 935 ft | 155 kts | 355° |
| 2026-05-07 16:20 | 28.21970 | 113.21754 | 1302 ft | 175 kts | 357° |
| 2026-05-07 16:21 | 28.23253 | 113.21681 | 1781 ft | 181 kts | 358° |
| 2026-05-07 16:21 | 28.24449 | 113.21613 | 2691 ft | 164 kts | 1° |
| 2026-05-07 16:21 | 28.25523 | 113.21546 | 3595 ft | 145 kts | 2° |
| 2026-05-07 16:21 | 28.26448 | 113.21485 | 4439 ft | 125 kts | 4° |
| 2026-05-07 16:22 | 28.27334 | 113.21435 | 4876 ft | 132 kts | 4° |
| 2026-05-07 16:22 | 28.28276 | 113.21384 | 5242 ft | 141 kts | 3° |
| 2026-05-07 16:22 | 28.29332 | 113.21330 | 5446 ft | 163 kts | 2° |
| 2026-05-07 16:22 | 28.30538 | 113.21267 | 5633 ft | 184 kts | 1° |
| 2026-05-07 16:23 | 28.31860 | 113.21191 | 5973 ft | 194 kts | 0° |
| 2026-05-07 16:23 | 28.33221 | 113.21106 | 6434 ft | 197 kts | 360° |
| 2026-05-07 16:23 | 28.34594 | 113.21020 | 6921 ft | 198 kts | 0° |
| 2026-05-07 16:23 | 28.35972 | 113.20941 | 7377 ft | 199 kts | 3° |
| 2026-05-07 16:24 | 28.37301 | 113.21321 | 7815 ft | 199 kts | 30° |
| 2026-05-07 16:24 | 28.38301 | 113.22382 | 8270 ft | 200 kts | 57° |
| 2026-05-07 16:24 | 28.38735 | 113.23896 | 8675 ft | 207 kts | 84° |
| 2026-05-07 16:24 | 28.38802 | 113.25547 | 9095 ft | 212 kts | 86° |
| 2026-05-07 16:25 | 28.38875 | 113.27235 | 9514 ft | 217 kts | 87° |
| 2026-05-07 16:25 | 28.38956 | 113.28964 | 9930 ft | 222 kts | 87° |
| 2026-05-07 16:25 | 28.39038 | 113.30708 | 10298 ft | 226 kts | 87° |
| 2026-05-07 16:25 | 28.39122 | 113.32500 | 10703 ft | 228 kts | 87° |
| 2026-05-07 16:26 | 28.39206 | 113.34309 | 11092 ft | 231 kts | 87° |
| 2026-05-07 16:26 | 28.39295 | 113.36146 | 11475 ft | 235 kts | 87° |
| 2026-05-07 16:26 | 28.39383 | 113.38007 | 11865 ft | 237 kts | 87° |
| 2026-05-07 16:26 | 28.39470 | 113.39883 | 12264 ft | 239 kts | 87° |
| 2026-05-07 16:27 | 28.39561 | 113.41826 | 12500 ft | 256 kts | 87° |
| 2026-05-07 16:27 | 28.39593 | 113.43912 | 12824 ft | 271 kts | 100° |
| 2026-05-07 16:27 | 28.38921 | 113.45889 | 13403 ft | 272 kts | 130° |
| 2026-05-07 16:27 | 28.37511 | 113.47297 | 13932 ft | 273 kts | 152° |
| 2026-05-07 16:28 | 28.35637 | 113.47506 | 13432 ft | 301 kts | 188° |
| 2026-05-07 16:28 | 28.33349 | 113.47325 | 12699 ft | 356 kts | 186° |
| 2026-05-07 16:28 | 28.30713 | 113.47210 | 12151 ft | 400 kts | 176° |
| 2026-05-07 16:28 | 28.27846 | 113.47693 | 11881 ft | 430 kts | 174° |
| 2026-05-07 16:29 | 28.25449 | 113.48074 | 10562 ft | 262 kts | 188° |
| 2026-05-07 16:29 | 28.24511 | 113.48160 | 3120 ft | 81 kts | 119° |